sensor_id;sensor_type;location;lat;lon;timestamp;P1;durP1;ratioP1;P2;durP2;ratioP2
1811;SDS011;904;47.814;11.134;2022-11-20T00:01:16;3.00;;;1.08;;
1811;SDS011;904;47.814;11.134;2022-11-20T00:03:44;2.00;;;0.98;;
1811;SDS011;904;47.814;11.134;2022-11-20T00:06:18;3.13;;;1.40;;
1811;SDS011;904;47.814;11.134;2022-11-20T00:08:47;3.10;;;1.20;;
1811;SDS011;904;47.814;11.134;2022-11-20T00:11:15;2.70;;;1.20;;
1811;SDS011;904;47.814;11.134;2022-11-20T00:13:44;2.53;;;1.40;;
1811;SDS011;904;47.814;11.134;2022-11-20T00:16:15;2.20;;;1.23;;
1811;SDS011;904;47.814;11.134;2022-11-20T00:18:44;2.17;;;1.10;;
1811;SDS011;904;47.814;11.134;2022-11-20T00:21:14;5.85;;;2.00;;
1811;SDS011;904;47.814;11.134;2022-11-20T00:23:44;2.05;;;1.08;;
1811;SDS011;904;47.814;11.134;2022-11-20T00:26:14;2.80;;;1.42;;
1811;SDS011;904;47.814;11.134;2022-11-20T00:29:00;2.50;;;1.40;;
1811;SDS011;904;47.814;11.134;2022-11-20T00:31:28;3.13;;;1.25;;
1811;SDS011;904;47.814;11.134;2022-11-20T00:33:58;2.38;;;1.45;;
1811;SDS011;904;47.814;11.134;2022-11-20T00:36:26;2.60;;;1.42;;
1811;SDS011;904;47.814;11.134;2022-11-20T00:38:55;2.33;;;1.20;;
1811;SDS011;904;47.814;11.134;2022-11-20T00:41:34;2.35;;;1.65;;
1811;SDS011;904;47.814;11.134;2022-11-20T00:44:03;2.65;;;2.13;;
1811;SDS011;904;47.814;11.134;2022-11-20T00:46:31;4.50;;;1.83;;
1811;SDS011;904;47.814;11.134;2022-11-20T00:48:59;2.00;;;1.20;;
1811;SDS011;904;47.814;11.134;2022-11-20T00:51:27;2.97;;;1.45;;
1811;SDS011;904;47.814;11.134;2022-11-20T00:53:56;3.08;;;1.50;;
1811;SDS011;904;47.814;11.134;2022-11-20T00:56:23;2.83;;;1.20;;
1811;SDS011;904;47.814;11.134;2022-11-20T00:58:50;2.70;;;1.45;;
1811;SDS011;904;47.814;11.134;2022-11-20T01:01:20;2.72;;;1.42;;
1811;SDS011;904;47.814;11.134;2022-11-20T01:03:50;2.80;;;1.27;;
1811;SDS011;904;47.814;11.134;2022-11-20T01:06:32;2.60;;;1.10;;
1811;SDS011;904;47.814;11.134;2022-11-20T01:09:03;2.22;;;1.20;;
1811;SDS011;904;47.814;11.134;2022-11-20T01:11:33;2.10;;;1.30;;
1811;SDS011;904;47.814;11.134;2022-11-20T01:14:02;2.78;;;1.27;;
1811;SDS011;904;47.814;11.134;2022-11-20T01:16:35;3.35;;;1.52;;
1811;SDS011;904;47.814;11.134;2022-11-20T01:19:09;3.20;;;1.40;;
1811;SDS011;904;47.814;11.134;2022-11-20T01:21:38;1.95;;;1.33;;
1811;SDS011;904;47.814;11.134;2022-11-20T01:24:07;2.50;;;1.20;;
1811;SDS011;904;47.814;11.134;2022-11-20T01:26:37;7.20;;;1.60;;
1811;SDS011;904;47.814;11.134;2022-11-20T01:29:07;1.90;;;1.13;;
1811;SDS011;904;47.814;11.134;2022-11-20T01:31:43;6.47;;;1.40;;
1811;SDS011;904;47.814;11.134;2022-11-20T01:34:12;3.80;;;1.50;;
1811;SDS011;904;47.814;11.134;2022-11-20T01:36:44;4.47;;;2.00;;
1811;SDS011;904;47.814;11.134;2022-11-20T01:39:13;4.10;;;2.25;;
1811;SDS011;904;47.814;11.134;2022-11-20T01:41:46;3.55;;;2.22;;
1811;SDS011;904;47.814;11.134;2022-11-20T01:44:53;2.70;;;1.95;;
1811;SDS011;904;47.814;11.134;2022-11-20T01:47:32;3.50;;;1.85;;
1811;SDS011;904;47.814;11.134;2022-11-20T01:50:04;2.65;;;2.10;;
1811;SDS011;904;47.814;11.134;2022-11-20T01:52:34;3.10;;;2.35;;
1811;SDS011;904;47.814;11.134;2022-11-20T01:55:09;2.95;;;1.80;;
1811;SDS011;904;47.814;11.134;2022-11-20T01:57:45;3.15;;;1.92;;
1811;SDS011;904;47.814;11.134;2022-11-20T02:00:17;2.92;;;1.98;;
1811;SDS011;904;47.814;11.134;2022-11-20T02:02:48;2.45;;;1.80;;
1811;SDS011;904;47.814;11.134;2022-11-20T02:05:19;6.95;;;3.05;;
1811;SDS011;904;47.814;11.134;2022-11-20T02:07:50;2.85;;;1.85;;
1811;SDS011;904;47.814;11.134;2022-11-20T02:10:19;3.92;;;2.15;;
1811;SDS011;904;47.814;11.134;2022-11-20T02:12:47;3.30;;;2.58;;
1811;SDS011;904;47.814;11.134;2022-11-20T02:15:32;3.53;;;2.47;;
1811;SDS011;904;47.814;11.134;2022-11-20T02:18:01;2.85;;;1.95;;
1811;SDS011;904;47.814;11.134;2022-11-20T02:20:29;3.85;;;2.13;;
1811;SDS011;904;47.814;11.134;2022-11-20T02:22:59;4.35;;;2.38;;
1811;SDS011;904;47.814;11.134;2022-11-20T02:25:32;2.90;;;2.22;;
1811;SDS011;904;47.814;11.134;2022-11-20T02:28:03;4.40;;;2.17;;
1811;SDS011;904;47.814;11.134;2022-11-20T02:30:31;3.85;;;2.80;;
1811;SDS011;904;47.814;11.134;2022-11-20T02:32:58;4.43;;;2.58;;
1811;SDS011;904;47.814;11.134;2022-11-20T02:35:40;2.90;;;2.38;;
1811;SDS011;904;47.814;11.134;2022-11-20T02:38:20;5.30;;;2.53;;
1811;SDS011;904;47.814;11.134;2022-11-20T02:40:49;5.25;;;3.00;;
1811;SDS011;904;47.814;11.134;2022-11-20T02:43:17;3.63;;;2.25;;
1811;SDS011;904;47.814;11.134;2022-11-20T02:45:45;2.25;;;1.70;;
1811;SDS011;904;47.814;11.134;2022-11-20T02:48:12;4.45;;;3.17;;
1811;SDS011;904;47.814;11.134;2022-11-20T02:50:39;3.90;;;2.70;;
1811;SDS011;904;47.814;11.134;2022-11-20T02:53:07;5.15;;;2.88;;
1811;SDS011;904;47.814;11.134;2022-11-20T02:55:35;3.60;;;2.65;;
1811;SDS011;904;47.814;11.134;2022-11-20T02:58:04;3.80;;;2.33;;
1811;SDS011;904;47.814;11.134;2022-11-20T03:00:31;3.83;;;2.90;;
1811;SDS011;904;47.814;11.134;2022-11-20T03:02:59;5.60;;;3.05;;
1811;SDS011;904;47.814;11.134;2022-11-20T03:05:26;3.95;;;2.70;;
1811;SDS011;904;47.814;11.134;2022-11-20T03:07:53;3.83;;;2.53;;
1811;SDS011;904;47.814;11.134;2022-11-20T03:10:21;6.15;;;2.58;;
1811;SDS011;904;47.814;11.134;2022-11-20T03:12:52;4.32;;;2.88;;
1811;SDS011;904;47.814;11.134;2022-11-20T03:15:21;3.35;;;2.58;;
1811;SDS011;904;47.814;11.134;2022-11-20T03:17:49;6.90;;;4.20;;
1811;SDS011;904;47.814;11.134;2022-11-20T03:20:19;7.15;;;3.15;;
1811;SDS011;904;47.814;11.134;2022-11-20T03:22:46;5.53;;;3.10;;
1811;SDS011;904;47.814;11.134;2022-11-20T03:25:13;5.93;;;3.67;;
1811;SDS011;904;47.814;11.134;2022-11-20T03:27:40;6.07;;;3.65;;
1811;SDS011;904;47.814;11.134;2022-11-20T03:30:09;5.38;;;4.10;;
1811;SDS011;904;47.814;11.134;2022-11-20T03:32:38;6.95;;;4.82;;
1811;SDS011;904;47.814;11.134;2022-11-20T03:35:06;6.85;;;3.63;;
1811;SDS011;904;47.814;11.134;2022-11-20T03:37:34;6.70;;;4.45;;
1811;SDS011;904;47.814;11.134;2022-11-20T03:40:03;4.95;;;3.67;;
1811;SDS011;904;47.814;11.134;2022-11-20T03:42:31;7.00;;;3.72;;
1811;SDS011;904;47.814;11.134;2022-11-20T03:45:11;7.30;;;4.07;;
1811;SDS011;904;47.814;11.134;2022-11-20T03:47:41;7.05;;;3.97;;
1811;SDS011;904;47.814;11.134;2022-11-20T03:50:09;5.60;;;3.30;;
1811;SDS011;904;47.814;11.134;2022-11-20T03:52:38;6.97;;;3.58;;
1811;SDS011;904;47.814;11.134;2022-11-20T03:55:06;5.90;;;3.80;;
1811;SDS011;904;47.814;11.134;2022-11-20T03:57:34;8.30;;;4.40;;
1811;SDS011;904;47.814;11.134;2022-11-20T04:00:02;6.47;;;4.13;;
1811;SDS011;904;47.814;11.134;2022-11-20T04:02:31;6.03;;;4.00;;
1811;SDS011;904;47.814;11.134;2022-11-20T04:05:00;5.38;;;3.40;;
1811;SDS011;904;47.814;11.134;2022-11-20T04:07:27;6.40;;;3.70;;
1811;SDS011;904;47.814;11.134;2022-11-20T04:09:55;6.40;;;3.63;;
1811;SDS011;904;47.814;11.134;2022-11-20T04:12:22;4.00;;;3.03;;
1811;SDS011;904;47.814;11.134;2022-11-20T04:14:50;4.75;;;3.53;;
1811;SDS011;904;47.814;11.134;2022-11-20T04:17:17;5.53;;;3.88;;
1811;SDS011;904;47.814;11.134;2022-11-20T04:19:47;8.90;;;2.83;;
1811;SDS011;904;47.814;11.134;2022-11-20T04:22:17;8.13;;;3.88;;
1811;SDS011;904;47.814;11.134;2022-11-20T04:24:45;4.70;;;3.20;;
1811;SDS011;904;47.814;11.134;2022-11-20T04:27:12;8.07;;;3.28;;
1811;SDS011;904;47.814;11.134;2022-11-20T04:29:40;6.00;;;3.92;;
1811;SDS011;904;47.814;11.134;2022-11-20T04:32:07;5.18;;;3.03;;
1811;SDS011;904;47.814;11.134;2022-11-20T04:34:35;4.68;;;3.88;;
1811;SDS011;904;47.814;11.134;2022-11-20T04:37:03;5.00;;;3.78;;
1811;SDS011;904;47.814;11.134;2022-11-20T04:39:37;6.35;;;3.20;;
1811;SDS011;904;47.814;11.134;2022-11-20T04:42:05;6.30;;;3.85;;
1811;SDS011;904;47.814;11.134;2022-11-20T04:44:50;4.95;;;3.55;;
1811;SDS011;904;47.814;11.134;2022-11-20T04:47:17;4.43;;;3.03;;
1811;SDS011;904;47.814;11.134;2022-11-20T04:49:45;4.68;;;3.30;;
1811;SDS011;904;47.814;11.134;2022-11-20T04:52:13;4.40;;;2.90;;
1811;SDS011;904;47.814;11.134;2022-11-20T04:54:42;3.70;;;2.75;;
1811;SDS011;904;47.814;11.134;2022-11-20T04:57:09;5.32;;;3.50;;
1811;SDS011;904;47.814;11.134;2022-11-20T04:59:47;5.93;;;3.80;;
1811;SDS011;904;47.814;11.134;2022-11-20T05:02:15;4.80;;;3.67;;
1811;SDS011;904;47.814;11.134;2022-11-20T05:04:43;4.18;;;3.22;;
1811;SDS011;904;47.814;11.134;2022-11-20T05:07:10;4.78;;;2.97;;
1811;SDS011;904;47.814;11.134;2022-11-20T05:09:43;6.35;;;3.45;;
1811;SDS011;904;47.814;11.134;2022-11-20T05:12:11;5.88;;;3.70;;
1811;SDS011;904;47.814;11.134;2022-11-20T05:14:38;5.03;;;3.60;;
1811;SDS011;904;47.814;11.134;2022-11-20T05:17:06;4.50;;;3.40;;
1811;SDS011;904;47.814;11.134;2022-11-20T05:19:37;7.15;;;4.10;;
1811;SDS011;904;47.814;11.134;2022-11-20T05:22:07;3.63;;;3.00;;
1811;SDS011;904;47.814;11.134;2022-11-20T05:24:35;5.85;;;3.75;;
1811;SDS011;904;47.814;11.134;2022-11-20T05:27:04;5.78;;;3.30;;
1811;SDS011;904;47.814;11.134;2022-11-20T05:29:32;3.95;;;2.83;;
1811;SDS011;904;47.814;11.134;2022-11-20T05:31:59;6.57;;;3.58;;
1811;SDS011;904;47.814;11.134;2022-11-20T05:34:27;5.95;;;2.92;;
1811;SDS011;904;47.814;11.134;2022-11-20T05:36:55;5.57;;;3.40;;
1811;SDS011;904;47.814;11.134;2022-11-20T05:39:23;6.35;;;3.72;;
1811;SDS011;904;47.814;11.134;2022-11-20T05:41:50;6.85;;;3.13;;
1811;SDS011;904;47.814;11.134;2022-11-20T05:44:39;4.15;;;3.25;;
1811;SDS011;904;47.814;11.134;2022-11-20T05:47:09;4.75;;;3.70;;
1811;SDS011;904;47.814;11.134;2022-11-20T05:49:37;5.22;;;3.83;;
1811;SDS011;904;47.814;11.134;2022-11-20T05:52:04;4.43;;;3.20;;
1811;SDS011;904;47.814;11.134;2022-11-20T05:54:32;4.43;;;3.72;;
1811;SDS011;904;47.814;11.134;2022-11-20T05:57:00;4.70;;;3.00;;
1811;SDS011;904;47.814;11.134;2022-11-20T05:59:27;5.28;;;4.13;;
1811;SDS011;904;47.814;11.134;2022-11-20T06:01:56;5.18;;;4.40;;
1811;SDS011;904;47.814;11.134;2022-11-20T06:04:24;3.30;;;2.45;;
1811;SDS011;904;47.814;11.134;2022-11-20T06:06:52;4.30;;;3.80;;
1811;SDS011;904;47.814;11.134;2022-11-20T06:09:19;4.63;;;3.40;;
1811;SDS011;904;47.814;11.134;2022-11-20T06:11:46;4.25;;;3.85;;
1811;SDS011;904;47.814;11.134;2022-11-20T06:14:14;5.13;;;4.63;;
1811;SDS011;904;47.814;11.134;2022-11-20T06:16:42;3.55;;;2.58;;
1811;SDS011;904;47.814;11.134;2022-11-20T06:19:11;5.43;;;3.22;;
1811;SDS011;904;47.814;11.134;2022-11-20T06:21:39;4.53;;;3.17;;
1811;SDS011;904;47.814;11.134;2022-11-20T06:24:08;9.18;;;3.65;;
1811;SDS011;904;47.814;11.134;2022-11-20T06:26:36;7.18;;;3.72;;
1811;SDS011;904;47.814;11.134;2022-11-20T06:29:05;11.35;;;5.03;;
1811;SDS011;904;47.814;11.134;2022-11-20T06:31:33;4.85;;;3.08;;
1811;SDS011;904;47.814;11.134;2022-11-20T06:34:03;7.97;;;3.47;;
1811;SDS011;904;47.814;11.134;2022-11-20T06:36:32;4.47;;;2.90;;
1811;SDS011;904;47.814;11.134;2022-11-20T06:39:00;6.10;;;4.53;;
1811;SDS011;904;47.814;11.134;2022-11-20T06:41:28;4.70;;;3.50;;
1811;SDS011;904;47.814;11.134;2022-11-20T06:43:56;4.65;;;2.53;;
1811;SDS011;904;47.814;11.134;2022-11-20T06:46:24;3.97;;;2.88;;
1811;SDS011;904;47.814;11.134;2022-11-20T06:48:51;4.28;;;2.78;;
1811;SDS011;904;47.814;11.134;2022-11-20T06:51:18;4.35;;;3.03;;
1811;SDS011;904;47.814;11.134;2022-11-20T06:53:47;7.70;;;3.33;;
1811;SDS011;904;47.814;11.134;2022-11-20T06:56:15;7.63;;;3.67;;
1811;SDS011;904;47.814;11.134;2022-11-20T06:58:42;5.40;;;4.22;;
1811;SDS011;904;47.814;11.134;2022-11-20T07:01:11;5.55;;;3.65;;
1811;SDS011;904;47.814;11.134;2022-11-20T07:03:40;3.92;;;2.80;;
1811;SDS011;904;47.814;11.134;2022-11-20T07:06:10;3.20;;;2.50;;
1811;SDS011;904;47.814;11.134;2022-11-20T07:08:39;7.90;;;3.33;;
1811;SDS011;904;47.814;11.134;2022-11-20T07:11:07;4.38;;;2.92;;
1811;SDS011;904;47.814;11.134;2022-11-20T07:13:38;6.47;;;3.40;;
1811;SDS011;904;47.814;11.134;2022-11-20T07:16:08;4.70;;;3.25;;
1811;SDS011;904;47.814;11.134;2022-11-20T07:18:36;5.03;;;2.75;;
1811;SDS011;904;47.814;11.134;2022-11-20T07:21:04;4.55;;;3.72;;
1811;SDS011;904;47.814;11.134;2022-11-20T07:23:33;6.55;;;3.70;;
1811;SDS011;904;47.814;11.134;2022-11-20T07:26:02;3.70;;;2.67;;
1811;SDS011;904;47.814;11.134;2022-11-20T07:28:45;4.72;;;3.38;;
1811;SDS011;904;47.814;11.134;2022-11-20T07:31:15;4.53;;;2.80;;
1811;SDS011;904;47.814;11.134;2022-11-20T07:33:42;4.00;;;2.80;;
1811;SDS011;904;47.814;11.134;2022-11-20T07:36:10;3.67;;;2.80;;
1811;SDS011;904;47.814;11.134;2022-11-20T07:38:37;7.13;;;3.58;;
1811;SDS011;904;47.814;11.134;2022-11-20T07:41:05;3.35;;;2.60;;
1811;SDS011;904;47.814;11.134;2022-11-20T07:43:33;4.95;;;3.20;;
1811;SDS011;904;47.814;11.134;2022-11-20T07:46:02;5.63;;;2.70;;
1811;SDS011;904;47.814;11.134;2022-11-20T07:48:30;3.65;;;2.00;;
1811;SDS011;904;47.814;11.134;2022-11-20T07:50:57;3.40;;;2.40;;
1811;SDS011;904;47.814;11.134;2022-11-20T07:53:25;3.60;;;1.98;;
1811;SDS011;904;47.814;11.134;2022-11-20T07:55:52;5.05;;;2.38;;
1811;SDS011;904;47.814;11.134;2022-11-20T07:58:20;3.80;;;2.33;;
1811;SDS011;904;47.814;11.134;2022-11-20T08:00:47;2.75;;;1.52;;
1811;SDS011;904;47.814;11.134;2022-11-20T08:03:17;4.18;;;1.88;;
1811;SDS011;904;47.814;11.134;2022-11-20T08:05:44;3.15;;;1.70;;
1811;SDS011;904;47.814;11.134;2022-11-20T08:08:11;7.55;;;1.80;;
1811;SDS011;904;47.814;11.134;2022-11-20T08:10:39;2.70;;;1.88;;
1811;SDS011;904;47.814;11.134;2022-11-20T08:13:06;2.60;;;1.48;;
1811;SDS011;904;47.814;11.134;2022-11-20T08:15:52;3.65;;;1.85;;
1811;SDS011;904;47.814;11.134;2022-11-20T08:18:21;2.35;;;1.45;;
1811;SDS011;904;47.814;11.134;2022-11-20T08:20:48;2.85;;;2.00;;
1811;SDS011;904;47.814;11.134;2022-11-20T08:23:15;2.88;;;1.70;;
1811;SDS011;904;47.814;11.134;2022-11-20T08:25:43;3.30;;;1.80;;
1811;SDS011;904;47.814;11.134;2022-11-20T08:28:15;2.80;;;1.38;;
1811;SDS011;904;47.814;11.134;2022-11-20T08:30:42;2.80;;;1.70;;
1811;SDS011;904;47.814;11.134;2022-11-20T08:33:11;3.30;;;1.80;;
1811;SDS011;904;47.814;11.134;2022-11-20T08:35:39;3.22;;;2.10;;
1811;SDS011;904;47.814;11.134;2022-11-20T08:38:08;2.85;;;1.30;;
1811;SDS011;904;47.814;11.134;2022-11-20T08:40:35;2.90;;;1.60;;
1811;SDS011;904;47.814;11.134;2022-11-20T08:43:03;3.28;;;1.80;;
1811;SDS011;904;47.814;11.134;2022-11-20T08:45:31;3.25;;;1.88;;
1811;SDS011;904;47.814;11.134;2022-11-20T08:47:59;4.25;;;1.90;;
1811;SDS011;904;47.814;11.134;2022-11-20T08:50:28;2.45;;;1.48;;
1811;SDS011;904;47.814;11.134;2022-11-20T08:53:03;3.50;;;2.33;;
1811;SDS011;904;47.814;11.134;2022-11-20T08:55:31;2.92;;;2.00;;
1811;SDS011;904;47.814;11.134;2022-11-20T08:58:03;5.90;;;1.95;;
1811;SDS011;904;47.814;11.134;2022-11-20T09:00:32;3.58;;;1.48;;
1811;SDS011;904;47.814;11.134;2022-11-20T09:03:01;2.65;;;1.70;;
1811;SDS011;904;47.814;11.134;2022-11-20T09:05:28;3.08;;;1.30;;
1811;SDS011;904;47.814;11.134;2022-11-20T09:07:56;2.63;;;1.55;;
1811;SDS011;904;47.814;11.134;2022-11-20T09:10:27;2.42;;;1.38;;
1811;SDS011;904;47.814;11.134;2022-11-20T09:12:57;3.67;;;1.90;;
1811;SDS011;904;47.814;11.134;2022-11-20T09:15:25;3.10;;;1.47;;
1811;SDS011;904;47.814;11.134;2022-11-20T09:17:53;2.13;;;1.25;;
1811;SDS011;904;47.814;11.134;2022-11-20T09:20:22;4.18;;;1.30;;
1811;SDS011;904;47.814;11.134;2022-11-20T09:22:49;2.88;;;1.55;;
1811;SDS011;904;47.814;11.134;2022-11-20T09:25:17;2.78;;;1.65;;
1811;SDS011;904;47.814;11.134;2022-11-20T09:27:47;3.92;;;1.60;;
1811;SDS011;904;47.814;11.134;2022-11-20T09:30:15;3.22;;;1.20;;
1811;SDS011;904;47.814;11.134;2022-11-20T09:32:43;5.13;;;1.50;;
1811;SDS011;904;47.814;11.134;2022-11-20T09:35:12;2.77;;;1.00;;
1811;SDS011;904;47.814;11.134;2022-11-20T09:37:41;2.70;;;1.40;;
1811;SDS011;904;47.814;11.134;2022-11-20T09:40:17;1.90;;;0.93;;
1811;SDS011;904;47.814;11.134;2022-11-20T09:42:51;2.50;;;1.50;;
1811;SDS011;904;47.814;11.134;2022-11-20T09:45:33;3.90;;;1.10;;
1811;SDS011;904;47.814;11.134;2022-11-20T09:51:13;3.47;;;1.70;;
1811;SDS011;904;47.814;11.134;2022-11-20T09:54:02;2.90;;;0.90;;
1811;SDS011;904;47.814;11.134;2022-11-20T09:56:40;2.87;;;1.00;;
1811;SDS011;904;47.814;11.134;2022-11-20T09:59:23;2.30;;;1.20;;
1811;SDS011;904;47.814;11.134;2022-11-20T10:02:00;2.87;;;1.00;;
1811;SDS011;904;47.814;11.134;2022-11-20T10:04:29;2.93;;;1.07;;
1811;SDS011;904;47.814;11.134;2022-11-20T10:07:01;2.30;;;1.17;;
1811;SDS011;904;47.814;11.134;2022-11-20T10:09:32;2.93;;;0.90;;
1811;SDS011;904;47.814;11.134;2022-11-20T10:12:06;3.10;;;0.90;;
1811;SDS011;904;47.814;11.134;2022-11-20T10:14:49;2.00;;;0.70;;
1811;SDS011;904;47.814;11.134;2022-11-20T10:17:26;2.00;;;0.80;;
1811;SDS011;904;47.814;11.134;2022-11-20T10:20:09;2.27;;;1.17;;
1811;SDS011;904;47.814;11.134;2022-11-20T10:22:47;2.10;;;0.90;;
1811;SDS011;904;47.814;11.134;2022-11-20T10:25:29;2.43;;;0.93;;
1811;SDS011;904;47.814;11.134;2022-11-20T10:28:15;1.90;;;0.80;;
1811;SDS011;904;47.814;11.134;2022-11-20T10:30:54;1.93;;;0.80;;
1811;SDS011;904;47.814;11.134;2022-11-20T10:33:26;1.80;;;0.90;;
1811;SDS011;904;47.814;11.134;2022-11-20T10:36:00;4.10;;;1.00;;
1811;SDS011;904;47.814;11.134;2022-11-20T10:38:41;1.97;;;0.80;;
1811;SDS011;904;47.814;11.134;2022-11-20T10:41:14;2.40;;;0.90;;
1811;SDS011;904;47.814;11.134;2022-11-20T10:43:54;2.77;;;1.17;;
1811;SDS011;904;47.814;11.134;2022-11-20T10:46:38;2.07;;;1.10;;
1811;SDS011;904;47.814;11.134;2022-11-20T10:49:11;2.00;;;0.90;;
1811;SDS011;904;47.814;11.134;2022-11-20T10:51:44;1.83;;;0.60;;
1811;SDS011;904;47.814;11.134;2022-11-20T10:54:29;2.10;;;0.73;;
1811;SDS011;904;47.814;11.134;2022-11-20T10:57:03;1.70;;;0.70;;
1811;SDS011;904;47.814;11.134;2022-11-20T10:59:45;2.30;;;0.80;;
1811;SDS011;904;47.814;11.134;2022-11-20T11:02:33;2.00;;;0.90;;
1811;SDS011;904;47.814;11.134;2022-11-20T11:05:10;2.20;;;0.70;;
1811;SDS011;904;47.814;11.134;2022-11-20T11:08:28;1.90;;;0.90;;
1811;SDS011;904;47.814;11.134;2022-11-20T11:11:09;2.03;;;0.77;;
1811;SDS011;904;47.814;11.134;2022-11-20T11:13:46;1.80;;;0.70;;
1811;SDS011;904;47.814;11.134;2022-11-20T11:16:20;2.20;;;0.90;;
1811;SDS011;904;47.814;11.134;2022-11-20T11:19:02;2.60;;;1.00;;
1811;SDS011;904;47.814;11.134;2022-11-20T11:21:37;2.00;;;0.97;;
1811;SDS011;904;47.814;11.134;2022-11-20T11:24:23;1.80;;;0.70;;
1811;SDS011;904;47.814;11.134;2022-11-20T11:26:53;2.10;;;0.90;;
1811;SDS011;904;47.814;11.134;2022-11-20T11:29:32;3.60;;;0.80;;
1811;SDS011;904;47.814;11.134;2022-11-20T11:32:05;1.83;;;0.73;;
1811;SDS011;904;47.814;11.134;2022-11-20T11:34:36;2.40;;;0.80;;
1811;SDS011;904;47.814;11.134;2022-11-20T11:37:04;1.80;;;0.70;;
1811;SDS011;904;47.814;11.134;2022-11-20T11:39:40;2.43;;;0.83;;
1811;SDS011;904;47.814;11.134;2022-11-20T11:42:12;2.27;;;0.80;;
1811;SDS011;904;47.814;11.134;2022-11-20T11:44:46;2.30;;;0.87;;
1811;SDS011;904;47.814;11.134;2022-11-20T11:47:38;1.93;;;0.87;;
1811;SDS011;904;47.814;11.134;2022-11-20T11:50:17;2.93;;;0.90;;
1811;SDS011;904;47.814;11.134;2022-11-20T11:52:48;2.83;;;0.80;;
1811;SDS011;904;47.814;11.134;2022-11-20T11:55:38;1.97;;;0.90;;
1811;SDS011;904;47.814;11.134;2022-11-20T11:58:22;1.80;;;0.73;;
1811;SDS011;904;47.814;11.134;2022-11-20T12:01:07;2.80;;;0.77;;
1811;SDS011;904;47.814;11.134;2022-11-20T12:03:59;1.90;;;0.70;;
1811;SDS011;904;47.814;11.134;2022-11-20T12:06:45;2.53;;;1.30;;
1811;SDS011;904;47.814;11.134;2022-11-20T12:09:41;2.50;;;0.70;;
1811;SDS011;904;47.814;11.134;2022-11-20T12:12:13;2.47;;;0.90;;
1811;SDS011;904;47.814;11.134;2022-11-20T12:14:45;1.93;;;0.80;;
1811;SDS011;904;47.814;11.134;2022-11-20T12:17:16;2.47;;;0.80;;
1811;SDS011;904;47.814;11.134;2022-11-20T12:19:56;1.87;;;0.73;;
1811;SDS011;904;47.814;11.134;2022-11-20T12:22:28;2.10;;;0.80;;
1811;SDS011;904;47.814;11.134;2022-11-20T12:25:00;1.80;;;0.70;;
1811;SDS011;904;47.814;11.134;2022-11-20T12:27:39;2.63;;;0.70;;
1811;SDS011;904;47.814;11.134;2022-11-20T12:30:18;2.00;;;0.90;;
1811;SDS011;904;47.814;11.134;2022-11-20T12:36:03;1.97;;;1.00;;
1811;SDS011;904;47.814;11.134;2022-11-20T12:42:01;1.73;;;0.60;;
1811;SDS011;904;47.814;11.134;2022-11-20T12:48:14;2.23;;;0.70;;
1811;SDS011;904;47.814;11.134;2022-11-20T12:50:56;2.20;;;1.00;;
1811;SDS011;904;47.814;11.134;2022-11-20T12:53:36;1.67;;;0.70;;
1811;SDS011;904;47.814;11.134;2022-11-20T12:56:16;1.70;;;0.70;;
1811;SDS011;904;47.814;11.134;2022-11-20T12:59:12;4.57;;;0.90;;
1811;SDS011;904;47.814;11.134;2022-11-20T13:01:57;3.10;;;0.90;;
1811;SDS011;904;47.814;11.134;2022-11-20T13:07:45;2.17;;;0.87;;
1811;SDS011;904;47.814;11.134;2022-11-20T13:10:14;1.73;;;0.63;;
1811;SDS011;904;47.814;11.134;2022-11-20T13:12:50;1.67;;;0.67;;
1811;SDS011;904;47.814;11.134;2022-11-20T13:15:27;4.10;;;0.80;;
1811;SDS011;904;47.814;11.134;2022-11-20T13:18:03;1.70;;;0.70;;
1811;SDS011;904;47.814;11.134;2022-11-20T13:20:35;1.90;;;0.80;;
1811;SDS011;904;47.814;11.134;2022-11-20T13:23:07;2.00;;;0.80;;
1811;SDS011;904;47.814;11.134;2022-11-20T13:25:36;1.80;;;0.97;;
1811;SDS011;904;47.814;11.134;2022-11-20T13:30:57;4.80;;;0.97;;
1811;SDS011;904;47.814;11.134;2022-11-20T13:33:29;5.23;;;1.03;;
1811;SDS011;904;47.814;11.134;2022-11-20T13:35:59;2.07;;;0.97;;
1811;SDS011;904;47.814;11.134;2022-11-20T13:38:27;2.57;;;0.97;;
1811;SDS011;904;47.814;11.134;2022-11-20T13:41:07;4.80;;;1.30;;
1811;SDS011;904;47.814;11.134;2022-11-20T13:43:51;1.90;;;0.93;;
1811;SDS011;904;47.814;11.134;2022-11-20T13:46:19;4.23;;;2.03;;
1811;SDS011;904;47.814;11.134;2022-11-20T13:48:50;1.70;;;0.97;;
1811;SDS011;904;47.814;11.134;2022-11-20T13:51:26;1.83;;;0.80;;
1811;SDS011;904;47.814;11.134;2022-11-20T13:57:03;2.00;;;1.00;;
1811;SDS011;904;47.814;11.134;2022-11-20T13:59:46;2.00;;;1.00;;
1811;SDS011;904;47.814;11.134;2022-11-20T14:02:23;2.00;;;1.10;;
1811;SDS011;904;47.814;11.134;2022-11-20T14:04:53;3.10;;;1.10;;
1811;SDS011;904;47.814;11.134;2022-11-20T14:07:24;2.00;;;1.00;;
1811;SDS011;904;47.814;11.134;2022-11-20T14:09:57;1.97;;;1.10;;
1811;SDS011;904;47.814;11.134;2022-11-20T14:12:27;2.23;;;1.13;;
1811;SDS011;904;47.814;11.134;2022-11-20T14:14:57;2.00;;;1.10;;
1811;SDS011;904;47.814;11.134;2022-11-20T14:17:29;3.10;;;0.90;;
1811;SDS011;904;47.814;11.134;2022-11-20T14:19:58;1.80;;;1.00;;
1811;SDS011;904;47.814;11.134;2022-11-20T14:22:28;2.47;;;1.13;;
1811;SDS011;904;47.814;11.134;2022-11-20T14:25:18;3.80;;;1.20;;
1811;SDS011;904;47.814;11.134;2022-11-20T14:27:50;2.07;;;1.00;;
1811;SDS011;904;47.814;11.134;2022-11-20T14:30:21;2.20;;;1.03;;
1811;SDS011;904;47.814;11.134;2022-11-20T14:32:51;2.57;;;1.27;;
1811;SDS011;904;47.814;11.134;2022-11-20T14:35:21;4.00;;;1.13;;
1811;SDS011;904;47.814;11.134;2022-11-20T14:37:51;2.93;;;0.87;;
1811;SDS011;904;47.814;11.134;2022-11-20T14:40:27;2.30;;;1.07;;
1811;SDS011;904;47.814;11.134;2022-11-20T14:42:56;2.70;;;1.50;;
1811;SDS011;904;47.814;11.134;2022-11-20T14:45:26;2.40;;;1.20;;
1811;SDS011;904;47.814;11.134;2022-11-20T14:47:55;3.50;;;1.80;;
1811;SDS011;904;47.814;11.134;2022-11-20T14:50:25;2.17;;;1.17;;
1811;SDS011;904;47.814;11.134;2022-11-20T14:52:54;2.30;;;0.90;;
1811;SDS011;904;47.814;11.134;2022-11-20T14:55:26;3.20;;;1.43;;
1811;SDS011;904;47.814;11.134;2022-11-20T14:57:56;3.63;;;1.30;;
1811;SDS011;904;47.814;11.134;2022-11-20T15:00:28;3.40;;;1.37;;
1811;SDS011;904;47.814;11.134;2022-11-20T15:02:57;3.65;;;1.40;;
1811;SDS011;904;47.814;11.134;2022-11-20T15:05:25;2.53;;;1.20;;
1811;SDS011;904;47.814;11.134;2022-11-20T15:08:13;4.00;;;1.45;;
1811;SDS011;904;47.814;11.134;2022-11-20T15:10:45;2.55;;;1.02;;
1811;SDS011;904;47.814;11.134;2022-11-20T15:13:15;2.08;;;1.20;;
1811;SDS011;904;47.814;11.134;2022-11-20T15:15:52;12.85;;;8.48;;
1811;SDS011;904;47.814;11.134;2022-11-20T15:18:28;5.38;;;1.75;;
1811;SDS011;904;47.814;11.134;2022-11-20T15:20:58;2.28;;;1.15;;
1811;SDS011;904;47.814;11.134;2022-11-20T15:23:29;3.25;;;1.90;;
1811;SDS011;904;47.814;11.134;2022-11-20T15:25:56;2.42;;;1.40;;
1811;SDS011;904;47.814;11.134;2022-11-20T15:28:27;6.90;;;1.30;;
1811;SDS011;904;47.814;11.134;2022-11-20T15:30:59;2.97;;;2.00;;
1811;SDS011;904;47.814;11.134;2022-11-20T15:33:31;4.18;;;1.63;;
1811;SDS011;904;47.814;11.134;2022-11-20T15:35:59;7.45;;;1.88;;
1811;SDS011;904;47.814;11.134;2022-11-20T15:38:27;3.67;;;1.90;;
1811;SDS011;904;47.814;11.134;2022-11-20T15:40:54;2.90;;;1.60;;
1811;SDS011;904;47.814;11.134;2022-11-20T15:43:22;3.50;;;1.40;;
1811;SDS011;904;47.814;11.134;2022-11-20T15:45:51;4.63;;;1.75;;
1811;SDS011;904;47.814;11.134;2022-11-20T15:48:24;3.55;;;1.40;;
1811;SDS011;904;47.814;11.134;2022-11-20T15:50:55;5.75;;;1.98;;
1811;SDS011;904;47.814;11.134;2022-11-20T15:53:25;3.13;;;1.75;;
1811;SDS011;904;47.814;11.134;2022-11-20T15:55:55;2.78;;;1.40;;
1811;SDS011;904;47.814;11.134;2022-11-20T15:58:22;3.42;;;1.85;;
1811;SDS011;904;47.814;11.134;2022-11-20T16:00:52;2.58;;;1.50;;
1811;SDS011;904;47.814;11.134;2022-11-20T16:03:20;6.93;;;1.75;;
1811;SDS011;904;47.814;11.134;2022-11-20T16:05:49;3.30;;;1.67;;